Time;durP1;ratioP1;P1;durP2;ratioP2;P2;SDS_P1;SDS_P2;PMS_P1;PMS_P2;Temp;Humidity;BMP_temperature;BMP_pressure;BME280_temperature;BME280_humidity;BME280_pressure;Samples;Min_cycle;Max_cycle;Signal;HPM_P1;HPM_P2
2021/10/03 06:21:50;;;;;;;3.53;1.17;;;14.10;99.90;;;;;;5104590;27;20359;-73
2021/10/03 06:24:18;;;;;;;4.00;1.30;;;14.00;99.90;;;;;;5089425;28;20144;-71
2021/10/03 06:26:47;;;;;;;3.77;1.30;;;14.00;99.90;;;;;;5071195;28;20036;-72
2021/10/03 06:29:13;;;;;;;4.07;1.30;;;14.00;99.90;;;;;;5070661;28;20086;-71
2021/10/03 06:31:39;;;;;;;2.77;1.27;;;14.10;99.90;;;;;;5089476;28;20048;-72
2021/10/03 06:34:05;;;;;;;2.70;1.10;;;14.10;99.90;;;;;;5071415;28;20109;-71
2021/10/03 06:36:30;;;;;;;3.13;1.03;;;14.20;99.90;;;;;;5088582;28;20040;-71
2021/10/03 06:38:56;;;;;;;1.57;0.93;;;14.20;99.90;;;;;;5070809;28;20040;-71
2021/10/03 06:41:22;;;;;;;2.77;0.83;;;14.30;99.90;;;;;;5071232;28;20044;-71
2021/10/03 06:43:47;;;;;;;3.20;0.90;;;14.30;99.90;;;;;;5070148;28;20040;-71
2021/10/03 06:46:13;;;;;;;3.17;0.80;;;14.30;99.90;;;;;;5071345;28;20048;-67
2021/10/03 06:48:39;;;;;;;6.77;1.20;;;14.40;99.90;;;;;;5088937;28;20037;-74
2021/10/03 06:51:05;;;;;;;2.00;1.03;;;14.40;99.90;;;;;;5070601;28;20048;-75
2021/10/03 06:53:32;;;;;;;1.77;0.73;;;14.40;99.90;;;;;;5089476;28;20480;-83
2021/10/03 06:55:58;;;;;;;3.90;1.00;;;14.50;99.90;;;;;;5070786;28;20048;-83
2021/10/03 06:58:23;;;;;;;4.87;1.23;;;14.50;99.90;;;;;;5070497;28;20040;-79
2021/10/03 07:00:49;;;;;;;4.60;0.80;;;14.50;99.90;;;;;;5071137;28;20051;-79
2021/10/03 07:03:14;;;;;;;2.90;0.80;;;14.60;99.90;;;;;;5071813;28;20048;-79
2021/10/03 07:05:40;;;;;;;0.90;0.50;;;14.60;99.90;;;;;;5073143;28;20497;-81
2021/10/03 07:08:06;;;;;;;3.37;0.60;;;14.70;99.90;;;;;;5072842;28;20127;-84
2021/10/03 07:10:32;;;;;;;0.53;0.40;;;14.70;99.90;;;;;;5070997;28;20040;-79
2021/10/03 07:12:58;;;;;;;1.13;0.37;;;14.70;99.90;;;;;;5069819;28;20124;-80
2021/10/03 07:15:23;;;;;;;1.13;0.60;;;14.80;99.90;;;;;;5072262;28;20048;-82
2021/10/03 07:17:49;;;;;;;1.40;0.40;;;14.80;99.90;;;;;;5070889;28;20110;-82
2021/10/03 07:20:15;;;;;;;1.03;0.43;;;14.80;99.90;;;;;;5088625;28;20147;-83
2021/10/03 07:22:41;;;;;;;1.17;0.40;;;14.80;99.90;;;;;;5088720;28;20128;-82
2021/10/03 07:25:08;;;;;;;1.80;0.50;;;14.90;99.90;;;;;;5069768;28;20055;-80
2021/10/03 07:27:34;;;;;;;1.30;0.40;;;14.90;99.90;;;;;;5088861;28;20370;-83
2021/10/03 07:29:59;;;;;;;1.17;0.43;;;14.90;99.90;;;;;;5070024;28;20047;-81
2021/10/03 07:32:25;;;;;;;0.93;0.40;;;14.90;99.90;;;;;;5060848;28;20458;-83
2021/10/03 07:34:50;;;;;;;0.73;0.40;;;15.00;99.90;;;;;;5055948;28;20051;-81
2021/10/03 07:37:16;;;;;;;0.80;0.40;;;15.00;99.90;;;;;;5057631;28;20055;-84
2021/10/03 07:39:41;;;;;;;2.33;0.97;;;15.10;99.90;;;;;;5056200;28;20110;-67
2021/10/03 07:42:07;;;;;;;1.70;0.47;;;15.10;99.90;;;;;;5075004;28;20056;-67
2021/10/03 07:44:33;;;;;;;1.47;0.30;;;15.10;99.90;;;;;;5074734;28;20049;-67
2021/10/03 07:46:59;;;;;;;1.63;0.40;;;15.10;99.90;;;;;;5073686;28;20040;-67
2021/10/03 07:49:25;;;;;;;2.70;0.40;;;15.10;99.90;;;;;;5074083;28;20513;-73
2021/10/03 07:51:51;;;;;;;2.13;0.50;;;15.10;99.90;;;;;;5056762;28;20040;-73
2021/10/03 07:54:16;;;;;;;0.43;0.40;;;15.10;99.90;;;;;;5073808;28;20044;-73
2021/10/03 07:56:42;;;;;;;2.60;0.60;;;15.10;99.90;;;;;;5074215;28;20036;-75
2021/10/03 07:59:08;;;;;;;0.97;0.40;;;15.10;99.90;;;;;;5056292;28;20071;-70
2021/10/03 08:01:34;;;;;;;0.53;0.40;;;15.10;99.90;;;;;;5072716;28;20067;-74
2021/10/03 08:04:00;;;;;;;3.07;0.50;;;15.10;99.90;;;;;;5055975;28;20479;-72
2021/10/03 08:06:31;;;;;;;1.20;0.50;;;15.10;99.90;;;;;;5047566;28;20098;-73
2021/10/03 08:08:57;;;;;;;0.50;0.40;;;15.10;99.90;;;;;;5069079;28;20095;-71
2021/10/03 08:11:23;;;;;;;1.87;0.70;;;15.10;99.90;;;;;;5036931;28;20489;-71
2021/10/03 08:13:50;;;;;;;1.13;0.40;;;15.10;99.90;;;;;;5061966;28;20066;-71
2021/10/03 08:16:18;;;;;;;0.70;0.40;;;15.20;99.90;;;;;;5072244;28;20048;-70
2021/10/03 08:18:45;;;;;;;0.50;0.37;;;15.20;99.90;;;;;;5072637;28;20041;-71
2021/10/03 08:21:10;;;;;;;0.67;0.20;;;15.20;99.90;;;;;;5071170;28;20052;-70
2021/10/03 08:23:36;;;;;;;0.50;0.30;;;15.10;99.90;;;;;;5073648;28;20052;-71
2021/10/03 08:26:02;;;;;;;0.50;0.40;;;15.10;99.90;;;;;;5066653;28;20558;-69
2021/10/03 08:28:27;;;;;;;0.50;0.37;;;15.10;99.90;;;;;;5053295;28;20436;-74
2021/10/03 08:30:53;;;;;;;1.13;0.47;;;15.10;99.90;;;;;;5035551;28;20049;-67
2021/10/03 08:33:19;;;;;;;1.07;0.60;;;15.00;99.90;;;;;;5053646;28;20400;-67
2021/10/03 08:35:44;;;;;;;2.17;1.17;;;14.70;99.90;;;;;;5053077;28;20149;-78
2021/10/03 08:38:10;;;;;;;1.90;0.60;;;14.50;99.90;;;;;;5036077;28;20049;-75
2021/10/03 08:40:36;;;;;;;2.47;1.37;;;14.30;99.90;;;;;;5054020;28;20052;-75
2021/10/03 08:43:08;;;;;;;8.93;2.90;;;14.20;99.90;;;;;;5034395;28;20128;-81
2021/10/03 08:45:39;;;;;;;;;;;14.10;99.90;;;;;;5036296;28;20048;-76
2021/10/03 08:48:07;;;;;;;2.45;1.42;;;13.90;99.90;;;;;;5035993;28;20015;-76
2021/10/03 08:50:32;;;;;;;4.27;1.90;;;13.80;99.90;;;;;;5035522;28;20049;-77
2021/10/03 08:52:58;;;;;;;2.23;0.90;;;13.70;99.90;;;;;;5054114;28;20395;-76
2021/10/03 08:55:23;;;;;;;2.00;1.53;;;13.60;99.90;;;;;;5035497;28;20041;-76
2021/10/03 08:57:49;;;;;;;3.03;1.27;;;13.60;99.90;;;;;;5052613;28;20563;-74
2021/10/03 09:00:19;;;;;;;1.47;0.63;;;13.60;99.90;;;;;;5035305;28;20079;-76
2021/10/03 09:03:12;;;;;;;3.90;1.60;;;13.60;99.90;;;;;;5053040;28;20049;-77
2021/10/03 09:05:39;;;;;;;2.60;1.60;;;13.60;99.90;;;;;;5050699;28;20079;-74
2021/10/03 09:08:10;;;;;;;4.67;1.03;;;13.60;99.90;;;;;;5053186;28;20094;-75
2021/10/03 09:10:46;;;;;;;3.47;0.70;;;13.60;99.90;;;;;;5034490;28;20090;-72
2021/10/03 09:13:12;;;;;;;2.53;1.13;;;13.60;99.90;;;;;;5035433;28;20052;-74
2021/10/03 09:15:38;;;;;;;2.53;0.93;;;13.60;99.90;;;;;;5035074;28;20127;-73
2021/10/03 09:18:05;;;;;;;2.93;0.90;;;13.60;99.90;;;;;;5052181;28;20183;-72
2021/10/03 09:20:31;;;;;;;1.33;0.63;;;13.60;99.90;;;;;;5035261;28;20053;-74
2021/10/03 09:22:59;;;;;;;1.07;0.40;;;13.70;99.90;;;;;;5034669;28;20461;-73
2021/10/03 09:25:45;;;;;;;2.87;0.80;;;13.60;99.90;;;;;;5034321;28;20037;-74
2021/10/03 09:28:30;;;;;;;4.20;1.10;;;13.70;99.90;;;;;;5035440;28;20053;-75
2021/10/03 09:30:55;;;;;;;2.33;1.10;;;13.60;99.90;;;;;;5067853;28;20086;-77
2021/10/03 09:33:21;;;;;;;3.80;1.30;;;13.60;99.90;;;;;;5051871;28;20044;-76
2021/10/03 09:35:59;;;;;;;3.20;1.20;;;13.60;99.90;;;;;;5034499;28;20085;-75
2021/10/03 09:38:29;;;;;;;3.10;1.00;;;13.60;99.90;;;;;;5034216;28;20053;-72
2021/10/03 09:41:04;;;;;;;2.90;1.00;;;13.60;99.90;;;;;;5034205;28;20056;-70
2021/10/03 09:43:52;;;;;;;3.50;1.63;;;13.60;99.90;;;;;;5052462;28;20051;-69
2021/10/03 09:46:43;;;;;;;2.37;1.23;;;13.60;99.90;;;;;;5051770;28;20044;-77
2021/10/03 09:49:15;;;;;;;5.45;1.20;;;13.50;99.90;;;;;;5034889;28;20448;-73
2021/10/03 09:51:42;;;;;;;;;;;13.50;99.90;;;;;;5035117;28;20068;-83
2021/10/03 09:54:08;;;;;;;3.37;1.03;;;13.50;99.90;;;;;;5033909;28;19917;-80
2021/10/03 09:56:34;;;;;;;2.17;0.60;;;13.50;99.90;;;;;;5069950;28;20381;-82
2021/10/03 09:59:02;;;;;;;3.23;1.10;;;13.60;99.90;;;;;;5052157;28;20393;-75
2021/10/03 10:01:32;;;;;;;4.77;3.33;;;13.60;99.90;;;;;;5051418;28;20049;-78
2021/10/03 10:03:58;;;;;;;1.50;0.70;;;13.60;99.90;;;;;;5034372;28;20068;-79
2021/10/03 10:06:25;;;;;;;3.07;1.30;;;13.70;99.90;;;;;;5034549;28;20471;-76
2021/10/03 10:08:55;;;;;;;1.43;0.80;;;13.70;99.90;;;;;;5033387;28;20053;-75
2021/10/03 10:11:42;;;;;;;2.43;0.80;;;13.80;99.90;;;;;;5034384;28;20056;-74
2021/10/03 10:14:09;;;;;;;5.23;0.80;;;13.80;99.90;;;;;;5051418;28;20037;-76
2021/10/03 10:16:42;;;;;;;3.57;1.00;;;13.80;99.90;;;;;;5052039;28;20175;-74
2021/10/03 10:19:32;;;;;;;1.67;0.40;;;13.90;99.90;;;;;;5034167;28;20158;-77
2021/10/03 10:22:31;;;;;;;2.77;0.60;;;13.90;99.90;;;;;;5033298;28;20060;-81
2021/10/03 10:25:03;;;;;;;1.43;0.57;;;13.90;99.90;;;;;;5019322;28;20498;-83
2021/10/03 10:27:29;;;;;;;2.43;0.67;;;13.90;99.90;;;;;;5034139;28;20056;-79
2021/10/03 10:30:19;;;;;;;3.13;0.80;;;13.90;99.90;;;;;;5050797;28;20361;-79
2021/10/03 10:33:01;;;;;;;2.30;0.80;;;14.00;99.90;;;;;;5051183;28;20056;-67
2021/10/03 10:35:28;;;;;;;3.07;0.83;;;14.00;99.90;;;;;;5051222;28;20053;-67
2021/10/03 10:37:57;;;;;;;4.27;0.80;;;14.00;99.90;;;;;;5051761;28;20489;-67
2021/10/03 10:40:22;;;;;;;0.77;0.43;;;14.00;99.90;;;;;;5046379;28;20040;-75
2021/10/03 10:42:52;;;;;;;2.27;0.73;;;14.00;99.90;;;;;;5070784;28;20517;-78
2021/10/03 10:45:27;;;;;;;2.37;0.90;;;14.00;99.90;;;;;;5053423;28;20070;-71
2021/10/03 10:48:14;;;;;;;3.43;1.13;;;14.10;99.90;;;;;;5053569;28;20079;-77
2021/10/03 10:50:41;;;;;;;3.23;0.80;;;14.10;99.90;;;;;;5053046;28;20090;-77
2021/10/03 10:53:24;;;;;;;1.57;0.60;;;14.10;99.90;;;;;;5053819;28;20098;-75
2021/10/03 10:55:59;;;;;;;3.27;0.77;;;14.20;99.90;;;;;;5052886;28;20060;-76
2021/10/03 10:58:26;;;;;;;2.60;0.80;;;14.20;99.90;;;;;;5054106;28;20048;-77
2021/10/03 11:01:00;;;;;;;3.13;0.80;;;14.30;99.90;;;;;;5053356;28;20045;-85
2021/10/03 11:03:41;;;;;;;3.27;1.57;;;14.40;99.90;;;;;;5053309;28;20123;-78
2021/10/03 11:06:07;;;;;;;1.75;0.63;;;14.50;99.90;;;;;;5071814;28;20048;-73
2021/10/03 11:08:56;;;;;;;1.80;0.80;;;14.50;99.90;;;;;;5057013;28;20040;-71
2021/10/03 11:11:22;;;;;;;2.20;0.90;;;14.60;99.90;;;;;;5074596;28;20045;-74
2021/10/03 11:13:49;;;;;;;2.17;0.93;;;14.60;99.90;;;;;;5075126;28;20087;-75
2021/10/03 11:16:23;;;;;;;1.13;0.70;;;14.60;99.90;;;;;;5056611;28;20048;-76
2021/10/03 11:19:06;;;;;;;1.97;0.83;;;14.70;99.90;;;;;;5056332;28;20444;-70
2021/10/03 11:21:33;;;;;;;2.63;1.57;;;14.70;99.90;;;;;;5056249;28;20053;-74
2021/10/03 11:24:02;;;;;;;2.10;0.97;;;14.80;99.90;;;;;;5055472;28;20554;-78
2021/10/03 11:26:47;;;;;;;1.63;0.97;;;14.80;99.90;;;;;;5057324;28;20044;-67
2021/10/03 11:29:13;;;;;;;1.90;0.87;;;14.80;99.90;;;;;;5074807;28;20059;-68
2021/10/03 11:31:47;;;;;;;1.50;0.80;;;14.80;99.90;;;;;;5073872;28;20041;-68
2021/10/03 11:34:33;;;;;;;0.50;0.50;;;14.80;99.90;;;;;;5075213;28;20049;-75
2021/10/03 11:37:02;;;;;;;1.77;0.70;;;14.80;99.90;;;;;;5056564;28;20098;-75
2021/10/03 11:39:35;;;;;;;2.30;0.97;;;14.90;99.90;;;;;;5056734;28;20155;-73
2021/10/03 11:42:00;;;;;;;2.13;1.23;;;14.90;99.90;;;;;;5056931;28;20044;-80
2021/10/03 11:44:26;;;;;;;2.27;0.70;;;14.80;99.90;;;;;;5056899;28;20048;-80
2021/10/03 11:47:00;;;;;;;2.33;1.00;;;14.80;99.90;;;;;;5055645;28;20052;-76
2021/10/03 11:49:31;;;;;;;3.83;1.70;;;14.80;99.90;;;;;;5056839;28;20051;-80
2021/10/03 11:51:57;;;;;;;2.20;1.03;;;14.80;99.90;;;;;;5056254;28;20045;-76
2021/10/03 11:54:46;;;;;;;2.83;1.50;;;14.80;99.90;;;;;;5056736;28;20051;-71
2021/10/03 11:57:35;;;;;;;0.80;0.70;;;14.70;99.90;;;;;;5056972;28;20439;-74
2021/10/03 12:00:15;;;;;;;2.80;1.77;;;14.70;99.90;;;;;;5073391;28;20036;-71
2021/10/03 12:02:47;;;;;;;1.77;0.67;;;14.70;99.90;;;;;;5074220;28;20044;-71
2021/10/03 12:05:26;;;;;;;1.47;0.77;;;14.70;99.90;;;;;;5056441;28;20102;-72
2021/10/03 12:08:09;;;;;;;0.93;0.80;;;14.80;99.90;;;;;;5055662;28;20040;-75
2021/10/03 12:10:47;;;;;;;1.80;0.90;;;14.80;99.90;;;;;;5056282;28;20040;-81
2021/10/03 12:13:29;;;;;;;2.77;1.10;;;14.80;99.90;;;;;;5055783;28;20055;-80
2021/10/03 12:16:17;;;;;;;2.97;1.40;;;14.80;99.90;;;;;;5055943;28;20123;-76
2021/10/03 12:18:52;;;;;;;1.77;1.10;;;14.70;99.90;;;;;;5073677;28;20492;-74
2021/10/03 12:21:29;;;;;;;2.57;0.70;;;14.70;99.90;;;;;;5073063;28;20061;-73
2021/10/03 12:24:04;;;;;;;1.00;0.30;;;14.70;99.90;;;;;;5055864;28;20500;-71
2021/10/03 12:26:42;;;;;;;1.63;0.50;;;14.60;99.90;;;;;;5074094;28;20076;-78
2021/10/03 12:29:09;;;;;;;0.37;0.37;;;14.60;99.90;;;;;;5055367;28;20044;-70
2021/10/03 12:32:00;;;;;;;1.03;0.50;;;14.60;99.90;;;;;;5073892;28;20041;-70
2021/10/03 12:34:32;;;;;;;0.47;0.47;;;14.50;99.90;;;;;;5054145;28;20150;-70
2021/10/03 12:37:04;;;;;;;0.67;0.67;;;14.60;99.90;;;;;;5054955;28;20402;-71
2021/10/03 12:39:38;;;;;;;1.48;0.70;;;14.60;99.90;;;;;;5073779;28;20040;-71
2021/10/03 12:42:13;;;;;;;2.03;0.80;;;14.60;99.90;;;;;;5055253;28;20056;-73
